sensor_id;sensor_type;location;lat;lon;timestamp;pressure;altitude;pressure_sealevel;temperature;humidity
77086;BME280;66014;53.134;18.006;2023-04-25T00:00:48;99790.05;;;11.83;80.84
77086;BME280;66014;53.134;18.006;2023-04-25T00:03:21;99790.36;;;11.82;80.89
77086;BME280;66014;53.134;18.006;2023-04-25T00:05:46;99789.29;;;11.81;80.94
77086;BME280;66014;53.134;18.006;2023-04-25T00:08:13;99789.26;;;11.79;80.80
77086;BME280;66014;53.134;18.006;2023-04-25T00:10:39;99790.61;;;11.77;80.81
77086;BME280;66014;53.134;18.006;2023-04-25T00:13:05;99782.48;;;11.76;80.66
77086;BME280;66014;53.134;18.006;2023-04-25T00:15:31;99785.10;;;11.75;80.45
77086;BME280;66014;53.134;18.006;2023-04-25T00:17:57;99791.55;;;11.75;80.18
77086;BME280;66014;53.134;18.006;2023-04-25T00:20:23;99790.77;;;11.75;80.13
77086;BME280;66014;53.134;18.006;2023-04-25T00:22:50;99790.03;;;11.74;79.60
77086;BME280;66014;53.134;18.006;2023-04-25T00:25:18;99790.02;;;11.73;79.37
77086;BME280;66014;53.134;18.006;2023-04-25T00:27:44;99794.09;;;11.72;79.09
77086;BME280;66014;53.134;18.006;2023-04-25T00:30:10;99796.06;;;11.72;78.76
77086;BME280;66014;53.134;18.006;2023-04-25T00:32:36;99798.77;;;11.71;78.50
77086;BME280;66014;53.134;18.006;2023-04-25T00:35:02;99797.09;;;11.69;77.98
77086;BME280;66014;53.134;18.006;2023-04-25T00:37:28;99800.20;;;11.66;77.58
77086;BME280;66014;53.134;18.006;2023-04-25T00:39:54;99803.23;;;11.64;77.91
77086;BME280;66014;53.134;18.006;2023-04-25T00:42:21;99802.33;;;11.62;77.42
77086;BME280;66014;53.134;18.006;2023-04-25T00:44:47;99810.42;;;11.59;77.42
77086;BME280;66014;53.134;18.006;2023-04-25T00:47:13;99807.95;;;11.56;77.11
77086;BME280;66014;53.134;18.006;2023-04-25T00:49:39;99810.13;;;11.53;76.51
77086;BME280;66014;53.134;18.006;2023-04-25T00:52:05;99813.35;;;11.49;75.93
77086;BME280;66014;53.134;18.006;2023-04-25T00:54:31;99819.90;;;11.44;75.82
77086;BME280;66014;53.134;18.006;2023-04-25T00:56:57;99819.00;;;11.40;75.53
77086;BME280;66014;53.134;18.006;2023-04-25T00:59:25;99820.76;;;11.36;75.68
77086;BME280;66014;53.134;18.006;2023-04-25T01:01:51;99817.79;;;11.33;75.77
77086;BME280;66014;53.134;18.006;2023-04-25T01:04:17;99819.80;;;11.30;75.66
77086;BME280;66014;53.134;18.006;2023-04-25T01:06:43;99822.58;;;11.27;75.76
77086;BME280;66014;53.134;18.006;2023-04-25T01:09:11;99820.28;;;11.23;75.89
77086;BME280;66014;53.134;18.006;2023-04-25T01:11:38;99817.23;;;11.19;75.86
77086;BME280;66014;53.134;18.006;2023-04-25T01:14:05;99822.02;;;11.15;75.94
77086;BME280;66014;53.134;18.006;2023-04-25T01:16:32;99817.41;;;11.11;75.99
77086;BME280;66014;53.134;18.006;2023-04-25T01:18:59;99821.22;;;11.09;75.97
77086;BME280;66014;53.134;18.006;2023-04-25T01:21:25;99816.95;;;11.06;75.67
77086;BME280;66014;53.134;18.006;2023-04-25T01:23:54;99820.33;;;11.04;75.45
77086;BME280;66014;53.134;18.006;2023-04-25T01:26:21;99822.05;;;11.01;75.46
77086;BME280;66014;53.134;18.006;2023-04-25T01:28:47;99822.89;;;10.98;75.01
77086;BME280;66014;53.134;18.006;2023-04-25T01:31:14;99822.27;;;10.93;75.20
77086;BME280;66014;53.134;18.006;2023-04-25T01:33:41;99826.39;;;10.90;75.25
77086;BME280;66014;53.134;18.006;2023-04-25T01:36:07;99826.70;;;10.88;74.94
77086;BME280;66014;53.134;18.006;2023-04-25T01:38:34;99825.75;;;10.84;75.17
77086;BME280;66014;53.134;18.006;2023-04-25T01:41:01;99827.14;;;10.83;75.21
77086;BME280;66014;53.134;18.006;2023-04-25T01:43:26;99828.04;;;10.82;75.31
77086;BME280;66014;53.134;18.006;2023-04-25T01:45:52;99829.58;;;10.81;75.31
77086;BME280;66014;53.134;18.006;2023-04-25T01:48:18;99834.36;;;10.79;75.35
77086;BME280;66014;53.134;18.006;2023-04-25T01:50:47;99834.94;;;10.78;75.40
77086;BME280;66014;53.134;18.006;2023-04-25T01:53:13;99838.33;;;10.76;75.57
77086;BME280;66014;53.134;18.006;2023-04-25T01:55:40;99836.12;;;10.74;75.82
77086;BME280;66014;53.134;18.006;2023-04-25T01:58:06;99837.67;;;10.73;75.81
77086;BME280;66014;53.134;18.006;2023-04-25T02:00:36;99841.55;;;10.73;75.62
77086;BME280;66014;53.134;18.006;2023-04-25T02:03:05;99839.05;;;10.73;75.15
77086;BME280;66014;53.134;18.006;2023-04-25T02:05:35;99841.67;;;10.72;75.01
77086;BME280;66014;53.134;18.006;2023-04-25T02:08:04;99843.21;;;10.70;74.81
77086;BME280;66014;53.134;18.006;2023-04-25T02:10:30;99845.90;;;10.66;74.93
77086;BME280;66014;53.134;18.006;2023-04-25T02:12:57;99847.14;;;10.61;74.98
77086;BME280;66014;53.134;18.006;2023-04-25T02:15:23;99849.35;;;10.53;74.99
77086;BME280;66014;53.134;18.006;2023-04-25T02:17:48;99848.11;;;10.46;75.26
77086;BME280;66014;53.134;18.006;2023-04-25T02:20:14;99848.67;;;10.41;75.19
77086;BME280;66014;53.134;18.006;2023-04-25T02:22:41;99848.77;;;10.37;75.28
77086;BME280;66014;53.134;18.006;2023-04-25T02:25:08;99850.48;;;10.32;75.30
77086;BME280;66014;53.134;18.006;2023-04-25T02:27:34;99850.11;;;10.25;75.22
77086;BME280;66014;53.134;18.006;2023-04-25T02:30:01;99849.24;;;10.20;75.21
77086;BME280;66014;53.134;18.006;2023-04-25T02:32:26;99849.27;;;10.13;75.25
77086;BME280;66014;53.134;18.006;2023-04-25T02:34:52;99849.02;;;10.06;75.17
77086;BME280;66014;53.134;18.006;2023-04-25T02:37:19;99855.09;;;10.02;75.20
77086;BME280;66014;53.134;18.006;2023-04-25T02:39:45;99856.73;;;9.97;75.21
77086;BME280;66014;53.134;18.006;2023-04-25T02:42:10;99858.09;;;9.93;75.32
77086;BME280;66014;53.134;18.006;2023-04-25T02:44:36;99857.75;;;9.90;75.13
77086;BME280;66014;53.134;18.006;2023-04-25T02:47:02;99856.05;;;9.84;74.92
77086;BME280;66014;53.134;18.006;2023-04-25T02:49:28;99855.72;;;9.79;74.94
77086;BME280;66014;53.134;18.006;2023-04-25T02:51:53;99859.13;;;9.76;74.86
77086;BME280;66014;53.134;18.006;2023-04-25T02:54:19;99856.80;;;9.70;74.80
77086;BME280;66014;53.134;18.006;2023-04-25T02:56:45;99856.65;;;9.64;74.76
77086;BME280;66014;53.134;18.006;2023-04-25T02:59:11;99857.48;;;9.59;74.64
77086;BME280;66014;53.134;18.006;2023-04-25T03:01:37;99858.64;;;9.54;74.71
77086;BME280;66014;53.134;18.006;2023-04-25T03:04:03;99857.65;;;9.49;74.67
77086;BME280;66014;53.134;18.006;2023-04-25T03:06:28;99861.30;;;9.46;74.64
77086;BME280;66014;53.134;18.006;2023-04-25T03:08:54;99865.67;;;9.43;74.70
77086;BME280;66014;53.134;18.006;2023-04-25T03:11:20;99864.91;;;9.41;74.74
77086;BME280;66014;53.134;18.006;2023-04-25T03:13:46;99862.21;;;9.37;74.77
77086;BME280;66014;53.134;18.006;2023-04-25T03:16:12;99861.53;;;9.34;74.79
77086;BME280;66014;53.134;18.006;2023-04-25T03:18:38;99860.23;;;9.32;74.62
77086;BME280;66014;53.134;18.006;2023-04-25T03:21:04;99856.19;;;9.27;74.54
77086;BME280;66014;53.134;18.006;2023-04-25T03:23:30;99866.20;;;9.21;74.68
77086;BME280;66014;53.134;18.006;2023-04-25T03:25:55;99865.40;;;9.14;74.67
77086;BME280;66014;53.134;18.006;2023-04-25T03:28:21;99867.17;;;9.10;74.60
77086;BME280;66014;53.134;18.006;2023-04-25T03:30:47;99867.36;;;9.06;74.54
77086;BME280;66014;53.134;18.006;2023-04-25T03:33:13;99871.36;;;9.02;74.61
77086;BME280;66014;53.134;18.006;2023-04-25T03:35:39;99871.21;;;8.99;74.70
77086;BME280;66014;53.134;18.006;2023-04-25T03:38:06;99872.28;;;8.96;74.65
77086;BME280;66014;53.134;18.006;2023-04-25T03:40:31;99875.02;;;8.93;74.65
77086;BME280;66014;53.134;18.006;2023-04-25T03:42:57;99875.41;;;8.92;74.69
77086;BME280;66014;53.134;18.006;2023-04-25T03:45:23;99878.11;;;8.89;74.49
77086;BME280;66014;53.134;18.006;2023-04-25T03:47:49;99881.21;;;8.85;74.65
77086;BME280;66014;53.134;18.006;2023-04-25T03:50:19;99884.33;;;8.83;74.58
77086;BME280;66014;53.134;18.006;2023-04-25T03:52:46;99888.70;;;8.82;74.60
77086;BME280;66014;53.134;18.006;2023-04-25T03:55:12;99890.64;;;8.82;74.63
77086;BME280;66014;53.134;18.006;2023-04-25T03:57:38;99896.11;;;8.79;74.54
77086;BME280;66014;53.134;18.006;2023-04-25T04:00:04;99899.71;;;8.77;74.46
77086;BME280;66014;53.134;18.006;2023-04-25T04:02:30;99902.59;;;8.76;74.52
77086;BME280;66014;53.134;18.006;2023-04-25T04:04:55;99905.92;;;8.74;74.24
77086;BME280;66014;53.134;18.006;2023-04-25T04:07:22;99905.34;;;8.71;74.30
77086;BME280;66014;53.134;18.006;2023-04-25T04:09:48;99908.02;;;8.67;74.36
77086;BME280;66014;53.134;18.006;2023-04-25T04:12:13;99910.01;;;8.65;74.36
77086;BME280;66014;53.134;18.006;2023-04-25T04:14:39;99909.84;;;8.65;74.27
77086;BME280;66014;53.134;18.006;2023-04-25T04:17:05;99915.95;;;8.67;74.34
77086;BME280;66014;53.134;18.006;2023-04-25T04:19:31;99919.77;;;8.69;74.17
77086;BME280;66014;53.134;18.006;2023-04-25T04:21:57;99921.16;;;8.70;74.06
77086;BME280;66014;53.134;18.006;2023-04-25T04:24:23;99928.23;;;8.71;74.05
77086;BME280;66014;53.134;18.006;2023-04-25T04:26:49;99925.14;;;8.72;73.85
77086;BME280;66014;53.134;18.006;2023-04-25T04:29:16;99930.83;;;8.73;73.76
77086;BME280;66014;53.134;18.006;2023-04-25T04:31:50;99931.73;;;8.74;73.76
77086;BME280;66014;53.134;18.006;2023-04-25T04:34:16;99933.75;;;8.74;73.50
77086;BME280;66014;53.134;18.006;2023-04-25T04:36:44;99940.35;;;8.73;73.47
77086;BME280;66014;53.134;18.006;2023-04-25T04:39:12;99937.84;;;8.75;73.53
77086;BME280;66014;53.134;18.006;2023-04-25T04:41:38;99939.40;;;8.78;73.32
77086;BME280;66014;53.134;18.006;2023-04-25T04:44:05;99939.95;;;8.81;73.23
77086;BME280;66014;53.134;18.006;2023-04-25T04:46:32;99938.99;;;8.83;73.08
77086;BME280;66014;53.134;18.006;2023-04-25T04:49:04;99941.41;;;8.84;72.89
77086;BME280;66014;53.134;18.006;2023-04-25T04:51:30;99942.02;;;8.86;73.01
77086;BME280;66014;53.134;18.006;2023-04-25T04:53:57;99937.02;;;8.88;72.67
77086;BME280;66014;53.134;18.006;2023-04-25T04:56:24;99938.53;;;8.88;72.72
77086;BME280;66014;53.134;18.006;2023-04-25T04:58:51;99941.27;;;8.92;72.47
77086;BME280;66014;53.134;18.006;2023-04-25T05:01:18;99942.63;;;8.92;72.50
77086;BME280;66014;53.134;18.006;2023-04-25T05:03:43;99944.42;;;8.92;72.25
77086;BME280;66014;53.134;18.006;2023-04-25T05:06:09;99947.28;;;8.89;72.17
77086;BME280;66014;53.134;18.006;2023-04-25T05:08:36;99952.92;;;8.89;72.26
77086;BME280;66014;53.134;18.006;2023-04-25T05:11:02;99952.88;;;8.89;71.99
77086;BME280;66014;53.134;18.006;2023-04-25T05:13:28;99949.58;;;8.87;72.07
77086;BME280;66014;53.134;18.006;2023-04-25T05:15:53;99946.63;;;8.89;72.07
77086;BME280;66014;53.134;18.006;2023-04-25T05:18:19;99946.42;;;8.92;72.19
77086;BME280;66014;53.134;18.006;2023-04-25T05:20:45;99948.08;;;8.97;72.13
77086;BME280;66014;53.134;18.006;2023-04-25T05:23:11;99952.23;;;9.02;72.02
77086;BME280;66014;53.134;18.006;2023-04-25T05:25:37;99953.40;;;9.07;71.94
77086;BME280;66014;53.134;18.006;2023-04-25T05:28:03;99952.67;;;9.13;71.79
77086;BME280;66014;53.134;18.006;2023-04-25T05:30:29;99951.96;;;9.19;71.62
77086;BME280;66014;53.134;18.006;2023-04-25T05:32:54;99951.46;;;9.24;71.17
77086;BME280;66014;53.134;18.006;2023-04-25T05:35:21;99955.36;;;9.26;70.87
77086;BME280;66014;53.134;18.006;2023-04-25T05:37:47;99954.13;;;9.28;71.26
77086;BME280;66014;53.134;18.006;2023-04-25T05:40:13;99957.91;;;9.39;70.67
77086;BME280;66014;53.134;18.006;2023-04-25T05:42:38;99959.83;;;9.47;70.51
77086;BME280;66014;53.134;18.006;2023-04-25T05:45:05;99958.50;;;9.56;70.45
77086;BME280;66014;53.134;18.006;2023-04-25T05:47:31;99958.04;;;9.65;70.14
77086;BME280;66014;53.134;18.006;2023-04-25T05:49:57;99958.00;;;9.73;69.87
77086;BME280;66014;53.134;18.006;2023-04-25T05:52:25;99958.43;;;9.79;69.63
77086;BME280;66014;53.134;18.006;2023-04-25T05:54:51;99958.52;;;9.88;69.67
77086;BME280;66014;53.134;18.006;2023-04-25T05:57:25;99961.25;;;9.99;69.48
77086;BME280;66014;53.134;18.006;2023-04-25T05:59:52;99963.27;;;10.11;68.97
77086;BME280;66014;53.134;18.006;2023-04-25T06:02:19;99961.73;;;10.40;68.51
77086;BME280;66014;53.134;18.006;2023-04-25T06:04:46;99959.20;;;10.54;68.22
77086;BME280;66014;53.134;18.006;2023-04-25T06:07:12;99959.90;;;10.61;68.11
77086;BME280;66014;53.134;18.006;2023-04-25T06:09:38;99956.48;;;10.72;67.53
77086;BME280;66014;53.134;18.006;2023-04-25T06:12:06;99959.19;;;10.73;67.22
77086;BME280;66014;53.134;18.006;2023-04-25T06:14:33;99959.42;;;10.70;66.79
77086;BME280;66014;53.134;18.006;2023-04-25T06:16:59;99957.52;;;10.74;66.98
77086;BME280;66014;53.134;18.006;2023-04-25T06:19:25;99960.92;;;11.00;66.81
77086;BME280;66014;53.134;18.006;2023-04-25T06:21:51;99963.83;;;11.29;66.28
77086;BME280;66014;53.134;18.006;2023-04-25T06:24:16;99963.77;;;11.63;65.19
77086;BME280;66014;53.134;18.006;2023-04-25T06:26:42;99965.06;;;12.05;64.67
77086;BME280;66014;53.134;18.006;2023-04-25T06:29:08;99965.39;;;12.49;63.91
77086;BME280;66014;53.134;18.006;2023-04-25T06:31:34;99965.79;;;12.96;63.51
77086;BME280;66014;53.134;18.006;2023-04-25T06:34:00;99968.04;;;13.56;62.75
77086;BME280;66014;53.134;18.006;2023-04-25T06:36:26;99965.69;;;14.24;61.10
77086;BME280;66014;53.134;18.006;2023-04-25T06:38:53;99962.52;;;14.98;60.03
77086;BME280;66014;53.134;18.006;2023-04-25T06:41:20;99962.98;;;15.91;58.35
77086;BME280;66014;53.134;18.006;2023-04-25T06:43:46;99959.15;;;16.64;55.25
77086;BME280;66014;53.134;18.006;2023-04-25T06:46:12;99952.39;;;16.83;55.70
77086;BME280;66014;53.134;18.006;2023-04-25T06:48:38;99956.36;;;17.38;55.08
77086;BME280;66014;53.134;18.006;2023-04-25T06:51:05;99955.52;;;17.53;53.29
77086;BME280;66014;53.134;18.006;2023-04-25T06:53:31;99958.52;;;17.52;53.04
77086;BME280;66014;53.134;18.006;2023-04-25T06:55:56;99954.58;;;17.37;52.88
77086;BME280;66014;53.134;18.006;2023-04-25T06:58:22;99948.95;;;17.21;52.42
77086;BME280;66014;53.134;18.006;2023-04-25T07:00:48;99947.37;;;16.70;52.84
77086;BME280;66014;53.134;18.006;2023-04-25T07:03:14;99946.90;;;16.89;53.98
77086;BME280;66014;53.134;18.006;2023-04-25T07:05:40;99951.54;;;17.32;53.00
77086;BME280;66014;53.134;18.006;2023-04-25T07:08:06;99950.52;;;17.45;52.20
77086;BME280;66014;53.134;18.006;2023-04-25T07:10:32;99945.32;;;17.97;51.28
77086;BME280;66014;53.134;18.006;2023-04-25T07:12:58;99947.16;;;18.65;50.76
77086;BME280;66014;53.134;18.006;2023-04-25T07:15:24;99942.26;;;19.15;49.62
77086;BME280;66014;53.134;18.006;2023-04-25T07:17:50;99942.02;;;19.21;48.92
77086;BME280;66014;53.134;18.006;2023-04-25T07:20:17;99947.66;;;18.86;49.19
77086;BME280;66014;53.134;18.006;2023-04-25T07:22:43;99947.58;;;18.84;46.86
77086;BME280;66014;53.134;18.006;2023-04-25T07:25:09;99952.61;;;18.93;47.03
77086;BME280;66014;53.134;18.006;2023-04-25T07:27:35;99953.90;;;18.81;47.28
77086;BME280;66014;53.134;18.006;2023-04-25T07:30:01;99956.08;;;18.21;47.23
77086;BME280;66014;53.134;18.006;2023-04-25T07:32:29;99956.49;;;18.35;46.34
77086;BME280;66014;53.134;18.006;2023-04-25T07:34:55;99956.80;;;18.60;46.75
77086;BME280;66014;53.134;18.006;2023-04-25T07:37:21;99956.30;;;18.80;46.58
77086;BME280;66014;53.134;18.006;2023-04-25T07:39:47;99959.53;;;18.73;46.82
77086;BME280;66014;53.134;18.006;2023-04-25T07:42:13;99961.52;;;18.45;46.00
77086;BME280;66014;53.134;18.006;2023-04-25T07:44:39;99960.84;;;17.94;45.07
77086;BME280;66014;53.134;18.006;2023-04-25T07:47:06;99962.23;;;17.38;46.56
77086;BME280;66014;53.134;18.006;2023-04-25T07:49:37;99965.18;;;16.92;46.95
77086;BME280;66014;53.134;18.006;2023-04-25T07:52:04;99963.29;;;16.34;47.69
77086;BME280;66014;53.134;18.006;2023-04-25T07:54:31;99965.59;;;15.84;48.35
77086;BME280;66014;53.134;18.006;2023-04-25T07:56:58;99968.80;;;15.43;49.12
77086;BME280;66014;53.134;18.006;2023-04-25T07:59:24;99968.48;;;15.18;49.47
77086;BME280;66014;53.134;18.006;2023-04-25T08:01:50;99968.77;;;14.92;49.84
77086;BME280;66014;53.134;18.006;2023-04-25T08:04:16;99976.30;;;14.64;50.25
77086;BME280;66014;53.134;18.006;2023-04-25T08:06:42;99979.83;;;14.30;50.85
77086;BME280;66014;53.134;18.006;2023-04-25T08:09:09;99978.89;;;14.06;51.04
77086;BME280;66014;53.134;18.006;2023-04-25T08:11:35;99979.50;;;13.87;51.65
77086;BME280;66014;53.134;18.006;2023-04-25T08:14:01;99983.92;;;13.75;52.06
77086;BME280;66014;53.134;18.006;2023-04-25T08:16:27;99985.32;;;13.64;52.40
77086;BME280;66014;53.134;18.006;2023-04-25T08:18:54;99985.87;;;13.55;52.57
77086;BME280;66014;53.134;18.006;2023-04-25T08:21:20;99988.49;;;13.46;52.69
77086;BME280;66014;53.134;18.006;2023-04-25T08:23:46;99988.81;;;13.35;52.95
77086;BME280;66014;53.134;18.006;2023-04-25T08:26:12;99992.90;;;13.30;53.27
77086;BME280;66014;53.134;18.006;2023-04-25T08:28:38;99991.70;;;13.30;53.51
77086;BME280;66014;53.134;18.006;2023-04-25T08:31:04;99994.85;;;13.25;53.65
77086;BME280;66014;53.134;18.006;2023-04-25T08:33:30;99997.23;;;13.27;53.66
77086;BME280;66014;53.134;18.006;2023-04-25T08:35:57;99998.67;;;13.42;53.61
77086;BME280;66014;53.134;18.006;2023-04-25T08:38:23;99997.69;;;13.59;53.30
77086;BME280;66014;53.134;18.006;2023-04-25T08:40:50;99997.34;;;13.82;53.34
77086;BME280;66014;53.134;18.006;2023-04-25T08:43:20;99999.47;;;14.00;53.00
77086;BME280;66014;53.134;18.006;2023-04-25T08:45:46;99999.16;;;14.09;52.92
77086;BME280;66014;53.134;18.006;2023-04-25T08:48:14;99995.65;;;14.13;52.95
77086;BME280;66014;53.134;18.006;2023-04-25T08:50:53;100000.30;;;14.12;52.84
77086;BME280;66014;53.134;18.006;2023-04-25T08:53:29;99996.30;;;14.05;52.60
77086;BME280;66014;53.134;18.006;2023-04-25T08:55:58;99999.75;;;13.93;52.85
77086;BME280;66014;53.134;18.006;2023-04-25T08:58:25;100000.30;;;13.81;52.70
77086;BME280;66014;53.134;18.006;2023-04-25T09:00:51;100003.40;;;13.62;53.11
77086;BME280;66014;53.134;18.006;2023-04-25T09:03:18;100003.55;;;13.42;52.99
77086;BME280;66014;53.134;18.006;2023-04-25T09:05:44;100002.73;;;13.30;53.67
77086;BME280;66014;53.134;18.006;2023-04-25T09:08:10;100007.37;;;13.31;53.86
77086;BME280;66014;53.134;18.006;2023-04-25T09:10:37;100008.41;;;13.40;53.83
77086;BME280;66014;53.134;18.006;2023-04-25T09:13:06;100012.94;;;13.52;53.46
77086;BME280;66014;53.134;18.006;2023-04-25T09:15:54;100020.00;;;13.57;53.39
77086;BME280;66014;53.134;18.006;2023-04-25T09:18:28;100017.40;;;13.69;53.11
77086;BME280;66014;53.134;18.006;2023-04-25T09:20:56;100019.98;;;13.89;52.83
77086;BME280;66014;53.134;18.006;2023-04-25T09:23:22;100019.80;;;14.07;52.78
77086;BME280;66014;53.134;18.006;2023-04-25T09:25:50;100025.38;;;14.23;52.03
77086;BME280;66014;53.134;18.006;2023-04-25T09:28:24;100022.38;;;14.35;51.79
77086;BME280;66014;53.134;18.006;2023-04-25T09:30:56;100020.88;;;14.59;50.92
77086;BME280;66014;53.134;18.006;2023-04-25T09:33:30;100017.52;;;14.70;50.28
77086;BME280;66014;53.134;18.006;2023-04-25T09:36:23;100015.45;;;14.77;50.43
77086;BME280;66014;53.134;18.006;2023-04-25T09:38:51;100019.27;;;14.84;49.97
77086;BME280;66014;53.134;18.006;2023-04-25T09:41:23;100024.36;;;14.92;49.91
77086;BME280;66014;53.134;18.006;2023-04-25T09:43:56;100025.83;;;15.32;50.08
77086;BME280;66014;53.134;18.006;2023-04-25T09:46:35;100022.55;;;16.13;49.09
77086;BME280;66014;53.134;18.006;2023-04-25T09:49:07;100027.75;;;16.73;46.92
77086;BME280;66014;53.134;18.006;2023-04-25T09:51:37;100033.17;;;16.77;47.26
77086;BME280;66014;53.134;18.006;2023-04-25T09:54:03;100029.40;;;16.81;47.00
77086;BME280;66014;53.134;18.006;2023-04-25T09:56:32;100038.95;;;16.72;46.10
77086;BME280;66014;53.134;18.006;2023-04-25T09:59:02;100038.80;;;16.39;46.53
77086;BME280;66014;53.134;18.006;2023-04-25T10:01:29;100039.36;;;16.07;46.32
77086;BME280;66014;53.134;18.006;2023-04-25T10:03:56;100039.79;;;15.75;46.82
77086;BME280;66014;53.134;18.006;2023-04-25T10:06:24;100039.55;;;15.56;47.15
77086;BME280;66014;53.134;18.006;2023-04-25T10:08:53;100040.98;;;15.46;47.47
77086;BME280;66014;53.134;18.006;2023-04-25T10:11:21;100042.38;;;15.36;47.26
77086;BME280;66014;53.134;18.006;2023-04-25T10:13:49;100039.47;;;15.32;47.27
77086;BME280;66014;53.134;18.006;2023-04-25T10:16:15;100039.91;;;15.48;47.28
77086;BME280;66014;53.134;18.006;2023-04-25T10:18:42;100045.46;;;15.63;47.23
77086;BME280;66014;53.134;18.006;2023-04-25T10:21:08;100045.17;;;15.68;46.93
77086;BME280;66014;53.134;18.006;2023-04-25T10:23:36;100045.53;;;15.60;46.59
77086;BME280;66014;53.134;18.006;2023-04-25T10:26:03;100044.80;;;15.47;47.10
77086;BME280;66014;53.134;18.006;2023-04-25T10:29:02;100051.46;;;15.35;47.36
77086;BME280;66014;53.134;18.006;2023-04-25T10:31:30;100049.84;;;15.31;47.77
77086;BME280;66014;53.134;18.006;2023-04-25T10:33:59;100049.58;;;15.34;47.84
77086;BME280;66014;53.134;18.006;2023-04-25T10:36:26;100055.30;;;15.37;47.66
77086;BME280;66014;53.134;18.006;2023-04-25T10:39:03;100056.54;;;15.34;47.04
77086;BME280;66014;53.134;18.006;2023-04-25T10:41:45;100056.80;;;15.28;46.89
77086;BME280;66014;53.134;18.006;2023-04-25T10:44:11;100052.79;;;15.23;47.05
77086;BME280;66014;53.134;18.006;2023-04-25T10:46:37;100050.23;;;15.15;47.10
77086;BME280;66014;53.134;18.006;2023-04-25T10:49:03;100052.32;;;15.08;47.14
77086;BME280;66014;53.134;18.006;2023-04-25T10:51:31;100053.29;;;15.03;47.30
77086;BME280;66014;53.134;18.006;2023-04-25T10:54:05;100053.80;;;15.04;47.07
77086;BME280;66014;53.134;18.006;2023-04-25T10:56:39;100051.89;;;15.23;47.14
77086;BME280;66014;53.134;18.006;2023-04-25T11:01:37;100054.91;;;15.29;46.78
77086;BME280;66014;53.134;18.006;2023-04-25T11:04:03;100051.11;;;15.22;46.89
77086;BME280;66014;53.134;18.006;2023-04-25T11:06:55;100052.56;;;15.18;47.05
77086;BME280;66014;53.134;18.006;2023-04-25T11:09:23;100052.99;;;15.19;46.93
77086;BME280;66014;53.134;18.006;2023-04-25T11:11:57;100050.36;;;15.19;46.97
77086;BME280;66014;53.134;18.006;2023-04-25T11:14:24;100052.92;;;15.31;46.57
77086;BME280;66014;53.134;18.006;2023-04-25T11:16:57;100057.75;;;15.38;46.42
77086;BME280;66014;53.134;18.006;2023-04-25T11:19:25;100056.42;;;15.34;46.42
77086;BME280;66014;53.134;18.006;2023-04-25T11:22:00;100060.72;;;15.32;46.58
77086;BME280;66014;53.134;18.006;2023-04-25T11:24:34;100059.92;;;15.28;46.84
77086;BME280;66014;53.134;18.006;2023-04-25T11:27:02;100059.67;;;15.24;47.00
77086;BME280;66014;53.134;18.006;2023-04-25T11:29:29;100063.69;;;15.15;47.32
77086;BME280;66014;53.134;18.006;2023-04-25T11:31:58;100067.05;;;14.94;47.29
77086;BME280;66014;53.134;18.006;2023-04-25T11:34:25;100067.38;;;14.64;47.67
77086;BME280;66014;53.134;18.006;2023-04-25T11:36:53;100067.85;;;14.39;47.97
77086;BME280;66014;53.134;18.006;2023-04-25T11:39:20;100066.66;;;14.15;48.52
77086;BME280;66014;53.134;18.006;2023-04-25T11:41:46;100073.85;;;14.01;48.72
77086;BME280;66014;53.134;18.006;2023-04-25T11:44:15;100072.55;;;13.86;49.07
77086;BME280;66014;53.134;18.006;2023-04-25T11:46:43;100071.08;;;13.75;49.28
77086;BME280;66014;53.134;18.006;2023-04-25T11:49:13;100070.87;;;13.64;49.64
77086;BME280;66014;53.134;18.006;2023-04-25T11:51:46;100069.67;;;13.61;49.59
77086;BME280;66014;53.134;18.006;2023-04-25T11:54:13;100072.84;;;13.66;49.65
77086;BME280;66014;53.134;18.006;2023-04-25T11:56:44;100071.54;;;13.72;49.63
77086;BME280;66014;53.134;18.006;2023-04-25T11:59:10;100075.59;;;13.78;49.63
77086;BME280;66014;53.134;18.006;2023-04-25T12:01:38;100076.02;;;13.84;49.39
77086;BME280;66014;53.134;18.006;2023-04-25T12:04:22;100077.23;;;13.90;49.28
77086;BME280;66014;53.134;18.006;2023-04-25T12:06:51;100076.55;;;13.96;49.05
77086;BME280;66014;53.134;18.006;2023-04-25T12:09:28;100077.39;;;14.00;48.74
77086;BME280;66014;53.134;18.006;2023-04-25T12:12:01;100074.09;;;14.09;48.74
77086;BME280;66014;53.134;18.006;2023-04-25T12:14:32;100073.93;;;14.23;48.31
77086;BME280;66014;53.134;18.006;2023-04-25T12:17:04;100080.59;;;14.40;47.89
77086;BME280;66014;53.134;18.006;2023-04-25T12:19:37;100079.66;;;14.55;47.73
77086;BME280;66014;53.134;18.006;2023-04-25T12:22:23;100076.90;;;14.78;47.44
77086;BME280;66014;53.134;18.006;2023-04-25T12:24:50;100078.85;;;15.06;47.23
77086;BME280;66014;53.134;18.006;2023-04-25T12:27:17;100081.75;;;15.38;46.49
77086;BME280;66014;53.134;18.006;2023-04-25T12:29:53;100074.94;;;15.73;46.30
77086;BME280;66014;53.134;18.006;2023-04-25T12:32:25;100072.27;;;15.96;46.26
77086;BME280;66014;53.134;18.006;2023-04-25T12:34:52;100070.34;;;16.16;45.43
77086;BME280;66014;53.134;18.006;2023-04-25T12:37:18;100066.94;;;16.31;44.95
77086;BME280;66014;53.134;18.006;2023-04-25T12:39:44;100069.61;;;16.42;44.78
77086;BME280;66014;53.134;18.006;2023-04-25T12:42:10;100077.83;;;16.42;45.15
77086;BME280;66014;53.134;18.006;2023-04-25T12:44:39;100081.46;;;16.41;44.62
77086;BME280;66014;53.134;18.006;2023-04-25T12:47:08;100078.98;;;16.36;44.68
77086;BME280;66014;53.134;18.006;2023-04-25T12:49:33;100074.31;;;16.28;44.49
77086;BME280;66014;53.134;18.006;2023-04-25T12:51:59;100075.70;;;16.24;44.26
77086;BME280;66014;53.134;18.006;2023-04-25T12:54:25;100074.14;;;16.28;44.49